Time;durP1;ratioP1;P1;durP2;ratioP2;P2;SDS_P1;SDS_P2;PMS_P1;PMS_P2;Temp;Humidity;BMP_temperature;BMP_pressure;BME280_temperature;BME280_humidity;BME280_pressure;Samples;Min_cycle;Max_cycle;Signal;HPM_P1;HPM_P2
2023/01/22 00:01:23;;;;;;;;;;;;;;;-0.26;80.92;99027.06;7378032;19;19927;-82
2023/01/22 00:03:51;;;;;;;;;;;;;;;-0.24;80.77;99019.16;7371674;19;19926;-81
2023/01/22 00:06:18;;;;;;;;;;;;;;;0.03;80.14;99016.16;7375281;19;19922;-82
2023/01/22 00:08:45;;;;;;;;;;;;;;;-0.16;80.52;99013.59;7374897;19;19911;-82
2023/01/22 00:11:12;;;;;;;;;;;;;;;-0.09;80.27;99013.25;7379255;19;19923;-82
2023/01/22 00:13:39;;;;;;;;;;;;;;;-0.10;80.14;99010.75;7370080;19;19922;-84
2023/01/22 00:16:05;;;;;;;;;;;;;;;-0.18;80.57;99005.91;7375394;19;19919;-82
2023/01/22 00:18:32;;;;;;;;;;;;;;;-0.30;81.03;99015.09;7372079;19;19921;-83
2023/01/22 00:20:59;;;;;;;;;;;;;;;-0.18;80.38;99008.50;7370921;19;20794;-81
2023/01/22 00:23:25;;;;;;;;;;;;;;;-0.15;80.43;99008.34;7374070;19;19933;-82
2023/01/22 00:26:11;;;;;;;;;;;;;;;0.08;79.80;99004.66;7376630;19;19962;-84
2023/01/22 00:28:44;;;;;;;;;;;;;;;0.04;79.71;99005.69;7375408;19;19948;-81
2023/01/22 00:31:11;;;;;;;;;;;;;;;-0.05;79.71;98996.59;7378366;19;19931;-82
2023/01/22 00:33:39;;;;;;;;;;;;;;;0.21;79.37;99000.53;7378370;19;19914;-83
2023/01/22 00:36:07;;;;;;;;;;;;;;;0.18;79.02;99010.22;7380411;19;19923;-81
2023/01/22 00:38:33;;;;;;;;;;;;;;;0.08;79.53;99001.19;7380479;19;20269;-81
2023/01/22 00:41:01;;;;;;;;;;;;;;;0.14;79.15;99001.75;7383235;19;19970;-82
2023/01/22 00:43:28;;;;;;;;;;;;;;;0.29;78.88;98996.69;7382422;19;19971;-81
2023/01/22 00:45:54;;;;;;;;;;;;;;;0.24;78.92;99002.13;7379094;19;19927;-82
2023/01/22 00:48:21;;;;;;;;;;;;;;;0.26;79.03;98996.84;7380635;19;20258;-81
2023/01/22 00:50:48;;;;;;;;;;;;;;;0.14;78.96;99003.50;7381161;19;19918;-82
2023/01/22 00:53:14;;;;;;;;;;;;;;;0.30;78.85;98995.78;7384310;19;20440;-82
2023/01/22 00:55:51;;;;;;;;;;;;;;;0.24;78.97;98999.53;7380122;19;19933;-82
2023/01/22 00:58:18;;;;;;;;;;;;;;;-0.07;79.68;98997.56;7384234;19;19993;-81
2023/01/22 01:00:44;;;;;;;;;;;;;;;0.07;79.56;99004.72;7379315;19;20763;-81
2023/01/22 01:03:26;;;;;;;;;;;;;;;0.24;79.14;99001.28;7385450;19;19997;-83
2023/01/22 01:05:53;;;;;;;;;;;;;;;-0.07;79.73;98994.97;7376650;19;19918;-82
2023/01/22 01:08:20;;;;;;;;;;;;;;;0.08;79.57;98999.44;7381633;19;20246;-81
2023/01/22 01:10:46;;;;;;;;;;;;;;;-0.22;80.29;99004.34;7376542;19;19926;-82
2023/01/22 01:13:13;;;;;;;;;;;;;;;0.06;79.64;99000.44;7385957;19;19915;-81
2023/01/22 01:15:40;;;;;;;;;;;;;;;0.16;79.39;99001.69;7384311;19;19921;-82
2023/01/22 01:18:11;;;;;;;;;;;;;;;0.08;79.14;98996.84;7388015;19;19915;-81
2023/01/22 01:20:38;;;;;;;;;;;;;;;0.11;79.68;98991.47;7380294;19;19931;-82
2023/01/22 01:23:05;;;;;;;;;;;;;;;0.11;79.20;98993.25;7386233;19;19923;-82
2023/01/22 01:25:32;;;;;;;;;;;;;;;0.09;79.08;98989.88;7386883;19;19924;-82
2023/01/22 01:27:59;;;;;;;;;;;;;;;0.13;79.07;98992.25;7382706;19;19926;-82
2023/01/22 01:30:25;;;;;;;;;;;;;;;0.24;79.10;99004.75;7383938;19;19918;-82
2023/01/22 01:32:53;;;;;;;;;;;;;;;0.28;78.96;99001.06;7384210;19;19923;-82
2023/01/22 01:35:20;;;;;;;;;;;;;;;0.21;78.81;98997.94;7385547;19;20261;-82
2023/01/22 01:37:50;;;;;;;;;;;;;;;0.08;79.11;98993.38;7380818;19;20380;-82
2023/01/22 01:40:18;;;;;;;;;;;;;;;0.14;79.20;98987.88;7386950;19;20323;-81
2023/01/22 01:42:45;;;;;;;;;;;;;;;0.26;78.85;98991.63;7384396;19;20365;-82
2023/01/22 01:45:24;;;;;;;;;;;;;;;0.36;78.71;98987.66;7389317;19;19915;-82
2023/01/22 01:47:52;;;;;;;;;;;;;;;0.24;78.74;98983.91;7389748;19;20229;-82
2023/01/22 01:50:19;;;;;;;;;;;;;;;0.14;79.25;98985.28;7389490;19;19917;-82
2023/01/22 01:52:45;;;;;;;;;;;;;;;0.24;78.84;98983.06;7380334;19;19918;-82
2023/01/22 01:55:13;;;;;;;;;;;;;;;0.31;78.91;98985.28;7389210;19;19919;-82
2023/01/22 01:57:39;;;;;;;;;;;;;;;0.39;78.62;98983.13;7386556;19;19929;-82
2023/01/22 02:00:09;;;;;;;;;;;;;;;0.28;78.81;98977.63;7384830;19;19914;-82
2023/01/22 02:02:40;;;;;;;;;;;;;;;0.08;79.22;98982.97;7384355;19;20023;-81
2023/01/22 02:05:07;;;;;;;;;;;;;;;0.25;78.94;98974.34;7385785;19;20499;-81
2023/01/22 02:07:34;;;;;;;;;;;;;;;0.33;78.60;98982.63;7385859;19;19914;-82
2023/01/22 02:10:04;;;;;;;;;;;;;;;0.07;79.03;98987.34;7382744;19;19927;-81
2023/01/22 02:12:32;;;;;;;;;;;;;;;0.17;78.97;98983.38;7383053;19;19919;-82
2023/01/22 02:15:02;;;;;;;;;;;;;;;0.24;79.18;98975.25;7382974;19;21838;-82
2023/01/22 02:17:29;;;;;;;;;;;;;;;0.37;78.72;98978.91;7382971;19;19934;-82
2023/01/22 02:19:56;;;;;;;;;;;;;;;0.27;78.74;98975.97;7383854;19;19994;-81
2023/01/22 02:22:24;;;;;;;;;;;;;;;0.36;78.80;98972.88;7376941;19;19914;-82
2023/01/22 02:24:51;;;;;;;;;;;;;;;0.30;78.77;98974.97;7384897;19;20357;-82
2023/01/22 02:27:18;;;;;;;;;;;;;;;0.15;79.25;98976.56;7379909;19;20400;-82
2023/01/22 02:29:46;;;;;;;;;;;;;;;0.39;78.79;98980.53;7375844;19;20605;-82
2023/01/22 02:32:13;;;;;;;;;;;;;;;0.38;78.62;98975.41;7376118;19;19926;-82
2023/01/22 02:34:39;;;;;;;;;;;;;;;0.32;78.69;98975.72;7370189;19;19927;-82
2023/01/22 02:37:07;;;;;;;;;;;;;;;0.33;78.90;98973.03;7375688;19;19929;-82
2023/01/22 02:39:34;;;;;;;;;;;;;;;0.31;78.62;98974.03;7378541;19;20022;-82
2023/01/22 02:42:03;;;;;;;;;;;;;;;0.30;78.72;98978.41;7380669;19;19941;-83
2023/01/22 02:44:32;;;;;;;;;;;;;;;0.22;78.83;98980.53;7381261;19;19919;-82
2023/01/22 02:46:59;;;;;;;;;;;;;;;0.43;78.62;98978.63;7380616;19;19922;-82
2023/01/22 02:49:26;;;;;;;;;;;;;;;0.49;78.31;98987.88;7375902;19;19927;-82
2023/01/22 02:51:52;;;;;;;;;;;;;;;0.42;78.55;98983.00;7380693;19;19925;-82
2023/01/22 02:54:20;;;;;;;;;;;;;;;0.34;78.46;98982.56;7381929;19;19918;-82
2023/01/22 02:56:48;;;;;;;;;;;;;;;0.37;78.66;98974.59;7376380;19;19926;-82
2023/01/22 02:59:14;;;;;;;;;;;;;;;0.20;79.02;98977.16;7378647;19;19926;-82
2023/01/22 03:01:41;;;;;;;;;;;;;;;0.40;78.73;98977.03;7376280;19;19931;-82
2023/01/22 03:04:11;;;;;;;;;;;;;;;0.31;78.68;98974.03;7380145;19;19976;-82
2023/01/22 03:06:38;;;;;;;;;;;;;;;0.46;78.33;98975.88;7371266;19;19918;-82
2023/01/22 03:09:06;;;;;;;;;;;;;;;0.42;78.61;98971.72;7377574;19;19990;-82
2023/01/22 03:11:35;;;;;;;;;;;;;;;0.55;78.19;98971.94;7379005;19;19917;-82
2023/01/22 03:22:24;;;;;;;;;;;;;;;0.39;78.59;98974.50;7377974;19;19923;-82
2023/01/22 03:24:51;;;;;;;;;;;;;;;0.36;78.56;98970.28;7374739;19;19990;-82
2023/01/22 03:27:22;;;;;;;;;;;;;;;0.51;78.40;98966.06;7376737;19;19927;-82
2023/01/22 03:29:49;;;;;;;;;;;;;;;0.47;78.41;98968.91;7373330;19;19918;-82
2023/01/22 03:32:17;;;;;;;;;;;;;;;0.43;78.55;98966.44;7378702;19;20503;-82
2023/01/22 03:34:44;;;;;;;;;;;;;;;0.47;78.41;98969.72;7373633;19;20321;-82
2023/01/22 03:37:14;;;;;;;;;;;;;;;0.46;78.47;98972.44;7379155;19;19922;-82
2023/01/22 03:39:43;;;;;;;;;;;;;;;0.21;79.18;98968.44;7371941;19;19931;-82
2023/01/22 03:42:16;;;;;;;;;;;;;;;0.22;79.26;98964.94;7375086;19;19923;-82
2023/01/22 03:44:43;;;;;;;;;;;;;;;0.28;79.05;98977.63;7375702;19;19922;-82
2023/01/22 03:47:10;;;;;;;;;;;;;;;0.28;79.04;98972.44;7376482;19;19923;-82
2023/01/22 03:49:36;;;;;;;;;;;;;;;0.38;78.90;98973.66;7376139;19;19918;-82
2023/01/22 03:52:04;;;;;;;;;;;;;;;0.21;79.08;98973.63;7372348;19;19974;-82
2023/01/22 03:54:31;;;;;;;;;;;;;;;0.37;78.81;98974.59;7380195;19;20416;-82
2023/01/22 03:57:01;;;;;;;;;;;;;;;0.28;79.12;98972.44;7374893;19;19914;-82
2023/01/22 03:59:30;;;;;;;;;;;;;;;0.35;78.74;98975.56;7376865;19;19929;-82
2023/01/22 04:01:57;;;;;;;;;;;;;;;0.22;79.11;98973.56;7376339;19;19914;-82
2023/01/22 04:04:24;;;;;;;;;;;;;;;0.50;78.61;98973.94;7376203;19;19919;-83
2023/01/22 04:06:51;;;;;;;;;;;;;;;0.30;79.02;98972.34;7374659;19;20010;-82
2023/01/22 04:09:17;;;;;;;;;;;;;;;0.31;79.12;98976.63;7378044;19;20654;-82
2023/01/22 04:11:45;;;;;;;;;;;;;;;0.41;78.73;98977.88;7367836;19;19923;-82
2023/01/22 04:14:14;;;;;;;;;;;;;;;0.39;78.85;98977.94;7372711;19;19918;-82
2023/01/22 04:16:49;;;;;;;;;;;;;;;0.42;78.80;98982.13;7371947;19;19925;-82
2023/01/22 04:19:28;;;;;;;;;;;;;;;0.36;78.95;98978.09;7373184;19;19925;-82
2023/01/22 04:22:00;;;;;;;;;;;;;;;0.58;78.59;98977.00;7373211;19;20260;-82
2023/01/22 04:24:27;;;;;;;;;;;;;;;0.57;78.49;98978.75;7377025;19;20520;-82
2023/01/22 04:26:54;;;;;;;;;;;;;;;0.66;78.41;98969.66;7367766;19;19910;-82
2023/01/22 04:29:21;;;;;;;;;;;;;;;0.60;78.46;98976.00;7372592;19;19919;-82
2023/01/22 04:31:48;;;;;;;;;;;;;;;0.78;78.30;98973.38;7366154;19;19922;-82
2023/01/22 04:34:18;;;;;;;;;;;;;;;0.75;77.97;98965.72;7377229;19;20261;-82
2023/01/22 04:36:52;;;;;;;;;;;;;;;0.75;78.10;98976.16;7370685;19;19917;-82
2023/01/22 04:39:20;;;;;;;;;;;;;;;0.56;78.14;98979.69;7370745;19;19923;-83
2023/01/22 04:41:46;;;;;;;;;;;;;;;0.63;78.26;98983.69;7369489;19;19926;-82
2023/01/22 04:44:13;;;;;;;;;;;;;;;0.61;78.47;98982.06;7375436;19;19923;-82
2023/01/22 04:46:40;;;;;;;;;;;;;;;0.63;78.30;98988.03;7374547;19;20477;-82
2023/01/22 04:49:07;;;;;;;;;;;;;;;0.70;78.15;98983.34;7371033;19;19918;-83
2023/01/22 04:51:34;;;;;;;;;;;;;;;0.76;78.14;98985.63;7370214;19;19922;-82
2023/01/22 04:54:00;;;;;;;;;;;;;;;0.64;78.39;98993.16;7372938;19;19937;-82
2023/01/22 04:56:27;;;;;;;;;;;;;;;0.70;78.33;98994.59;7374784;19;20013;-82
2023/01/22 04:58:54;;;;;;;;;;;;;;;0.58;78.36;98996.09;7371017;19;19922;-82
2023/01/22 05:01:20;;;;;;;;;;;;;;;0.63;78.41;99001.03;7376993;19;19951;-83
2023/01/22 05:03:48;;;;;;;;;;;;;;;0.66;78.31;98993.09;7374344;19;20771;-83
2023/01/22 05:06:15;;;;;;;;;;;;;;;0.69;78.19;98999.91;7376186;19;19926;-82
2023/01/22 05:08:41;;;;;;;;;;;;;;;0.75;78.31;99000.44;7376192;19;20393;-83
2023/01/22 05:11:09;;;;;;;;;;;;;;;0.79;78.05;99007.16;7380267;19;19927;-83
2023/01/22 05:13:42;;;;;;;;;;;;;;;0.60;78.63;99012.44;7377138;19;19930;-83
2023/01/22 05:16:09;;;;;;;;;;;;;;;0.57;78.59;99007.41;7387009;19;20376;-83
2023/01/22 05:18:35;;;;;;;;;;;;;;;0.46;78.94;99008.88;7384291;19;19923;-83
2023/01/22 05:21:02;;;;;;;;;;;;;;;0.31;79.23;99011.31;7381513;19;19919;-83
2023/01/22 05:23:30;;;;;;;;;;;;;;;0.64;78.91;99008.78;7386531;19;20326;-83
2023/01/22 05:25:57;;;;;;;;;;;;;;;0.55;78.73;99014.44;7383410;19;19940;-83
2023/01/22 05:28:49;;;;;;;;;;;;;;;0.73;78.46;99022.25;7378337;19;19924;-82
2023/01/22 05:31:22;;;;;;;;;;;;;;;0.70;78.59;99017.22;7382335;19;19915;-82
2023/01/22 05:33:59;;;;;;;;;;;;;;;0.71;78.39;99019.75;7378361;19;19925;-82
2023/01/22 05:36:27;;;;;;;;;;;;;;;0.76;78.30;99024.69;7381184;19;19945;-82
2023/01/22 05:38:58;;;;;;;;;;;;;;;0.84;78.25;99025.16;7378502;19;19943;-82
2023/01/22 05:41:25;;;;;;;;;;;;;;;0.83;78.34;99026.06;7380897;19;20264;-82
2023/01/22 05:43:53;;;;;;;;;;;;;;;0.58;78.78;99013.44;7375411;19;19947;-82
2023/01/22 05:46:24;;;;;;;;;;;;;;;0.60;78.54;99022.03;7381412;19;19919;-82
2023/01/22 05:48:57;;;;;;;;;;;;;;;0.76;78.62;99027.31;7381567;19;19937;-83
2023/01/22 05:51:26;;;;;;;;;;;;;;;0.87;78.33;99028.47;7381995;19;20325;-82
2023/01/22 05:53:52;;;;;;;;;;;;;;;0.82;78.23;99030.44;7377350;19;19921;-82
2023/01/22 05:56:19;;;;;;;;;;;;;;;0.77;78.39;99029.84;7382169;19;20378;-82
2023/01/22 05:58:45;;;;;;;;;;;;;;;0.82;78.47;99037.44;7377226;19;19986;-83
2023/01/22 06:01:12;;;;;;;;;;;;;;;0.83;78.53;99034.72;7382058;19;19915;-83
2023/01/22 06:03:43;;;;;;;;;;;;;;;0.88;78.37;99027.53;7382948;19;19918;-83
2023/01/22 06:06:13;;;;;;;;;;;;;;;0.97;78.20;99033.19;7381843;19;19923;-82
2023/01/22 06:08:41;;;;;;;;;;;;;;;0.97;78.08;99035.78;7379872;19;20297;-82
2023/01/22 06:11:12;;;;;;;;;;;;;;;0.98;78.10;99034.88;7380771;19;20371;-82
2023/01/22 06:13:42;;;;;;;;;;;;;;;0.91;78.27;99038.72;7383960;19;20332;-83
2023/01/22 06:16:20;;;;;;;;;;;;;;;0.98;78.19;99040.94;7382400;19;19939;-83
2023/01/22 06:18:50;;;;;;;;;;;;;;;0.85;78.12;99050.28;7380713;19;19926;-83
2023/01/22 06:21:17;;;;;;;;;;;;;;;0.76;78.61;99048.97;7379743;19;20342;-82
2023/01/22 06:23:44;;;;;;;;;;;;;;;0.87;78.57;99051.91;7380512;19;20001;-82
2023/01/22 06:26:11;;;;;;;;;;;;;;;0.83;78.45;99052.97;7375089;19;19939;-82
2023/01/22 06:28:39;;;;;;;;;;;;;;;0.71;78.49;99050.13;7378571;19;20290;-83
2023/01/22 06:31:06;;;;;;;;;;;;;;;0.81;78.62;99051.34;7380838;19;19929;-82
2023/01/22 06:33:35;;;;;;;;;;;;;;;0.85;78.68;99061.56;7379335;19;20335;-83
2023/01/22 06:36:03;;;;;;;;;;;;;;;0.96;78.46;99065.38;7379161;19;19928;-82
2023/01/22 06:38:30;;;;;;;;;;;;;;;0.83;78.69;99057.34;7379223;19;20503;-83
2023/01/22 06:40:59;;;;;;;;;;;;;;;0.78;78.81;99060.16;7377328;19;19934;-82
2023/01/22 06:43:27;;;;;;;;;;;;;;;0.91;78.66;99064.75;7382160;19;20413;-83
2023/01/22 06:45:54;;;;;;;;;;;;;;;0.90;78.88;99058.72;7376906;19;19935;-83
2023/01/22 06:48:37;;;;;;;;;;;;;;;0.90;78.53;99063.94;7377472;19;20254;-82
2023/01/22 06:51:04;;;;;;;;;;;;;;;0.91;78.61;99060.38;7378312;19;20642;-83
2023/01/22 06:53:30;;;;;;;;;;;;;;;0.84;78.98;99070.28;7384688;19;19925;-82
2023/01/22 06:55:57;;;;;;;;;;;;;;;1.01;78.65;99073.81;7380440;19;19914;-83
2023/01/22 06:58:25;;;;;;;;;;;;;;;0.95;78.94;99074.97;7381948;19;19921;-83
2023/01/22 07:00:51;;;;;;;;;;;;;;;1.03;78.80;99067.59;7375675;19;19978;-82
2023/01/22 07:03:18;;;;;;;;;;;;;;;1.07;78.75;99078.69;7381615;19;20486;-82
2023/01/22 07:05:45;;;;;;;;;;;;;;;0.91;79.16;99076.03;7379282;19;20272;-82
2023/01/22 07:08:14;;;;;;;;;;;;;;;0.98;79.11;99074.81;7381426;19;19928;-83
2023/01/22 07:10:41;;;;;;;;;;;;;;;1.06;78.92;99085.66;7379568;19;20340;-83
2023/01/22 07:13:09;;;;;;;;;;;;;;;1.10;78.94;99083.75;7379267;19;19982;-83
2023/01/22 07:15:35;;;;;;;;;;;;;;;1.12;78.85;99089.72;7379831;19;19926;-82
2023/01/22 07:18:02;;;;;;;;;;;;;;;1.13;79.21;99087.94;7378625;19;19926;-82
2023/01/22 07:20:28;;;;;;;;;;;;;;;0.96;79.05;99091.44;7379562;19;19925;-83
2023/01/22 07:22:57;;;;;;;;;;;;;;;1.03;79.11;99098.84;7376963;19;20271;-83
2023/01/22 07:25:26;;;;;;;;;;;;;;;1.15;79.03;99088.72;7380099;19;19914;-83
2023/01/22 07:27:57;;;;;;;;;;;;;;;1.16;78.85;99101.69;7375614;19;20393;-83
2023/01/22 07:30:23;;;;;;;;;;;;;;;1.24;78.77;99101.28;7379559;19;19926;-84
2023/01/22 07:32:50;;;;;;;;;;;;;;;1.25;78.97;99093.38;7375053;19;19934;-82
2023/01/22 07:35:17;;;;;;;;;;;;;;;1.23;78.79;99096.97;7378793;19;19914;-83
2023/01/22 07:37:50;;;;;;;;;;;;;;;1.25;78.85;99106.41;7375401;19;20450;-83
2023/01/22 07:40:18;;;;;;;;;;;;;;;1.23;78.84;99100.41;7381476;19;19933;-83
2023/01/22 07:42:46;;;;;;;;;;;;;;;1.26;78.88;99102.03;7381235;19;19947;-84
2023/01/22 07:45:13;;;;;;;;;;;;;;;1.21;79.03;99102.28;7381031;19;19966;-83
2023/01/22 07:47:39;;;;;;;;;;;;;;;1.23;79.05;99103.03;7383834;19;20374;-83
2023/01/22 07:50:06;;;;;;;;;;;;;;;1.28;79.12;99101.03;7377336;19;19915;-83
2023/01/22 07:52:33;;;;;;;;;;;;;;;1.33;79.02;99106.00;7379987;19;19915;-83
2023/01/22 07:54:59;;;;;;;;;;;;;;;1.02;79.46;99112.78;7376688;19;19926;-83
2023/01/22 07:57:26;;;;;;;;;;;;;;;1.16;79.29;99106.91;7380427;19;20347;-83
2023/01/22 07:59:52;;;;;;;;;;;;;;;1.21;79.18;99110.13;7374278;19;19971;-83
2023/01/22 08:02:19;;;;;;;;;;;;;;;1.22;79.02;99114.38;7380861;19;20337;-84
2023/01/22 08:04:46;;;;;;;;;;;;;;;1.30;78.88;99116.59;7378067;19;19922;-84
2023/01/22 08:07:14;;;;;;;;;;;;;;;1.25;79.17;99118.59;7375467;19;19926;-83
2023/01/22 08:09:40;;;;;;;;;;;;;;;1.35;78.96;99121.59;7380797;19;20341;-83
2023/01/22 08:12:07;;;;;;;;;;;;;;;1.24;79.08;99124.75;7377376;19;19929;-84
2023/01/22 08:14:33;;;;;;;;;;;;;;;1.28;78.77;99131.47;7380763;19;20269;-83
2023/01/22 08:17:00;;;;;;;;;;;;;;;1.12;79.38;99122.75;7377118;19;20325;-82
2023/01/22 08:19:28;;;;;;;;;;;;;;;1.18;79.37;99130.25;7378346;19;19925;-83
2023/01/22 08:21:55;;;;;;;;;;;;;;;1.25;79.10;99132.47;7377963;19;20006;-83
2023/01/22 08:24:22;;;;;;;;;;;;;;;1.29;79.21;99136.63;7377970;19;19933;-84
2023/01/22 08:26:48;;;;;;;;;;;;;;;1.37;78.92;99137.97;7375949;19;20279;-83
2023/01/22 08:29:15;;;;;;;;;;;;;;;1.35;79.05;99143.28;7378324;19;19910;-84
2023/01/22 08:31:41;;;;;;;;;;;;;;;1.31;78.90;99145.19;7378912;19;19931;-84
2023/01/22 08:34:08;;;;;;;;;;;;;;;1.38;78.91;99150.94;7380114;19;19923;-84
2023/01/22 08:36:35;;;;;;;;;;;;;;;1.21;79.09;99157.03;7379254;19;19922;-84
2023/01/22 08:39:01;;;;;;;;;;;;;;;1.27;79.08;99156.69;7375038;19;19926;-83
2023/01/22 08:41:31;;;;;;;;;;;;;;;1.28;79.05;99160.97;7378673;19;19919;-84
2023/01/22 08:43:57;;;;;;;;;;;;;;;1.24;79.41;99153.41;7376242;19;19915;-83
2023/01/22 08:46:25;;;;;;;;;;;;;;;1.25;79.49;99162.91;7374616;19;19943;-84
2023/01/22 08:48:52;;;;;;;;;;;;;;;1.38;79.12;99158.75;7376927;19;19925;-83
2023/01/22 08:51:18;;;;;;;;;;;;;;;1.27;79.15;99154.09;7384012;19;19919;-83
2023/01/22 08:53:45;;;;;;;;;;;;;;;1.20;79.52;99154.50;7385482;19;19911;-83
2023/01/22 08:56:12;;;;;;;;;;;;;;;1.27;79.33;99155.88;7383308;19;19926;-83
2023/01/22 08:58:39;;;;;;;;;;;;;;;1.20;79.52;99157.94;7384909;19;19955;-83
2023/01/22 09:01:05;;;;;;;;;;;;;;;1.23;79.35;99155.16;7385477;19;19951;-83
2023/01/22 09:03:34;;;;;;;;;;;;;;;1.32;79.34;99161.69;7386139;19;20309;-83
2023/01/22 09:06:00;;;;;;;;;;;;;;;1.29;79.60;99159.22;7375441;19;19915;-84
2023/01/22 09:08:27;;;;;;;;;;;;;;;1.47;79.24;99152.22;7385564;19;19911;-83
2023/01/22 09:10:54;;;;;;;;;;;;;;;1.57;79.13;99157.81;7379280;19;19995;-84
2023/01/22 09:13:20;;;;;;;;;;;;;;;1.46;79.21;99159.22;7386406;19;19910;-83
2023/01/22 09:15:47;;;;;;;;;;;;;;;1.34;79.53;99159.81;7387315;19;19922;-83
2023/01/22 09:18:14;;;;;;;;;;;;;;;1.41;79.46;99165.59;7388079;19;20279;-83
2023/01/22 09:20:40;;;;;;;;;;;;;;;1.30;79.41;99164.38;7382759;19;20499;-84
2023/01/22 09:23:07;;;;;;;;;;;;;;;1.48;79.23;99174.78;7382212;19;19923;-84
2023/01/22 09:25:33;;;;;;;;;;;;;;;1.54;79.23;99177.06;7378082;19;20351;-84
2023/01/22 09:28:01;;;;;;;;;;;;;;;1.53;79.14;99172.78;7377575;19;20450;-84
2023/01/22 09:30:28;;;;;;;;;;;;;;;1.50;79.19;99175.53;7382053;19;19929;-84
2023/01/22 09:32:55;;;;;;;;;;;;;;;1.48;79.33;99173.00;7375698;19;20162;-83
2023/01/22 09:35:22;;;;;;;;;;;;;;;1.36;79.82;99170.19;7380141;19;19918;-84
2023/01/22 09:37:49;;;;;;;;;;;;;;;1.29;79.88;99170.50;7382011;19;19922;-84
2023/01/22 09:40:20;;;;;;;;;;;;;;;1.40;79.80;99172.56;7386276;19;19945;-84
2023/01/22 09:42:47;;;;;;;;;;;;;;;1.41;79.84;99165.59;7376894;19;19921;-84
2023/01/22 09:45:13;;;;;;;;;;;;;;;1.30;79.96;99166.97;7382315;19;19925;-84
2023/01/22 09:47:46;;;;;;;;;;;;;;;1.43;79.68;99182.00;7384522;19;20344;-84
2023/01/22 09:50:14;;;;;;;;;;;;;;;1.53;79.52;99184.06;7380053;19;20551;-83
2023/01/22 09:52:40;;;;;;;;;;;;;;;1.54;79.51;99187.50;7385002;19;21100;-83
2023/01/22 09:55:11;;;;;;;;;;;;;;;1.49;79.45;99190.34;7382432;19;19914;-83
2023/01/22 09:57:48;;;;;;;;;;;;;;;1.53;79.47;99189.28;7388026;19;19934;-84
2023/01/22 10:00:16;;;;;;;;;;;;;;;1.39;79.83;99193.50;7383305;19;20394;-83
2023/01/22 10:02:51;;;;;;;;;;;;;;;1.54;79.65;99195.31;7384818;19;19927;-83
2023/01/22 10:05:32;;;;;;;;;;;;;;;1.44;79.88;99191.50;7389290;19;19922;-83
2023/01/22 10:08:05;;;;;;;;;;;;;;;1.50;79.72;99196.38;7382260;19;20314;-83
2023/01/22 10:10:31;;;;;;;;;;;;;;;1.67;79.21;99195.53;7392118;19;19923;-84
2023/01/22 10:13:00;;;;;;;;;;;;;;;1.58;79.37;99198.59;7388783;19;19945;-84
2023/01/22 10:15:26;;;;;;;;;;;;;;;1.67;79.24;99200.75;7391314;19;19915;-84
2023/01/22 10:17:53;;;;;;;;;;;;;;;1.73;79.25;99203.88;7389786;19;19917;-84
2023/01/22 10:20:20;;;;;;;;;;;;;;;1.74;79.22;99200.34;7386075;19;19919;-84
2023/01/22 10:22:47;;;;;;;;;;;;;;;1.82;78.97;99199.09;7379970;19;20602;-83
2023/01/22 10:25:15;;;;;;;;;;;;;;;1.69;79.13;99199.75;7382069;19;19933;-85
2023/01/22 10:27:41;;;;;;;;;;;;;;;1.74;79.13;99208.19;7381102;19;19922;-84
2023/01/22 10:30:14;;;;;;;;;;;;;;;1.81;79.10;99206.09;7378250;19;19929;-84
2023/01/22 10:32:41;;;;;;;;;;;;;;;1.61;79.37;99204.53;7381800;19;20711;-85
2023/01/22 10:35:18;;;;;;;;;;;;;;;1.72;79.44;99206.56;7377275;19;19927;-84
2023/01/22 10:37:49;;;;;;;;;;;;;;;1.80;79.03;99211.41;7378825;19;19918;-84
2023/01/22 10:40:36;;;;;;;;;;;;;;;1.74;79.33;99208.19;7382867;19;19932;-84
2023/01/22 10:43:10;;;;;;;;;;;;;;;1.74;79.21;99210.78;7376208;19;19930;-83
2023/01/22 10:45:37;;;;;;;;;;;;;;;1.61;79.36;99217.56;7381946;19;19939;-83
2023/01/22 10:48:05;;;;;;;;;;;;;;;1.58;79.41;99212.50;7375537;19;19919;-84
2023/01/22 10:50:32;;;;;;;;;;;;;;;1.51;79.79;99214.56;7378322;19;19969;-85
2023/01/22 10:52:58;;;;;;;;;;;;;;;1.70;79.47;99216.25;7381489;19;20540;-84
2023/01/22 10:55:29;;;;;;;;;;;;;;;1.75;78.98;99220.28;7383498;19;19911;-84
2023/01/22 10:58:03;;;;;;;;;;;;;;;1.73;78.87;99219.53;7378293;19;19914;-85
2023/01/22 11:00:34;;;;;;;;;;;;;;;1.69;78.98;99210.19;7381857;19;19928;-85
2023/01/22 11:03:20;;;;;;;;;;;;;;;1.82;79.05;99206.91;7384623;19;19925;-84
2023/01/22 11:05:46;;;;;;;;;;;;;;;1.62;79.16;99216.63;7379322;19;20201;-85
2023/01/22 11:08:14;;;;;;;;;;;;;;;1.55;79.17;99212.66;7380083;19;19921;-85
2023/01/22 11:10:46;;;;;;;;;;;;;;;1.65;79.24;99211.25;7381508;19;19915;-84
2023/01/22 11:13:22;;;;;;;;;;;;;;;1.48;79.40;99209.53;7376673;19;19983;-84
2023/01/22 11:15:54;;;;;;;;;;;;;;;1.68;79.00;99211.09;7384739;19;20336;-84
2023/01/22 11:18:24;;;;;;;;;;;;;;;1.82;78.92;99204.31;7384142;19;19922;-85
2023/01/22 11:20:52;;;;;;;;;;;;;;;1.74;78.97;99205.56;7382147;19;19918;-86
2023/01/22 11:23:23;;;;;;;;;;;;;;;1.56;79.28;99203.06;7386792;19;19930;-86
2023/01/22 11:25:55;;;;;;;;;;;;;;;1.83;78.87;99208.63;7381723;19;19926;-87
2023/01/22 11:28:26;;;;;;;;;;;;;;;1.83;78.75;99206.00;7379838;19;19921;-86
2023/01/22 11:30:57;;;;;;;;;;;;;;;1.77;78.99;99214.16;7375258;19;20025;-86
2023/01/22 11:33:26;;;;;;;;;;;;;;;1.54;79.67;99209.19;7379616;19;19923;-86
2023/01/22 11:35:54;;;;;;;;;;;;;;;1.89;79.04;99201.31;7376125;19;19923;-87
2023/01/22 11:38:24;;;;;;;;;;;;;;;2.02;78.56;99208.50;7373976;19;20385;-85
2023/01/22 11:40:53;;;;;;;;;;;;;;;1.98;78.30;99213.03;7378944;19;19927;-88
2023/01/22 11:46:47;;;;;;;;;;;;;;;2.00;78.50;99205.13;7383446;19;19921;-86
2023/01/22 11:49:21;;;;;;;;;;;;;;;1.96;78.49;99200.06;7384242;19;20022;-87
2023/01/22 11:51:47;;;;;;;;;;;;;;;2.15;78.22;99199.91;7390481;19;20537;-86
2023/01/22 11:54:18;;;;;;;;;;;;;;;1.83;78.79;99198.19;7381439;19;19914;-86
2023/01/22 11:56:51;;;;;;;;;;;;;;;1.91;78.47;99196.00;7384194;19;19929;-86
2023/01/22 11:59:21;;;;;;;;;;;;;;;1.76;78.90;99192.44;7381459;19;20325;-87
2023/01/22 12:01:48;;;;;;;;;;;;;;;1.83;78.92;99192.97;7384370;19;19942;-87
2023/01/22 12:04:30;;;;;;;;;;;;;;;2.02;78.61;99193.66;7380585;19;19930;-88
2023/01/22 12:07:15;;;;;;;;;;;;;;;2.00;78.53;99187.69;7380210;19;19923;-87
2023/01/22 12:09:42;;;;;;;;;;;;;;;2.08;78.36;99182.06;7388146;19;19997;-88
2023/01/22 12:12:09;;;;;;;;;;;;;;;2.04;78.21;99184.00;7385150;19;19927;-88
2023/01/22 12:14:48;;;;;;;;;;;;;;;1.94;78.37;99186.25;7381040;19;19918;-87
2023/01/22 12:17:26;;;;;;;;;;;;;;;1.92;78.52;99187.25;7383542;19;19982;-87
2023/01/22 12:20:11;;;;;;;;;;;;;;;1.89;78.68;99193.47;7378514;19;19929;-88
2023/01/22 12:22:41;;;;;;;;;;;;;;;1.95;78.76;99194.94;7381897;19;19974;-88
2023/01/22 12:25:26;;;;;;;;;;;;;;;2.06;78.54;99192.59;7386428;19;19978;-88
2023/01/22 12:27:54;;;;;;;;;;;;;;;2.04;78.34;99193.59;7391136;19;20004;-88
2023/01/22 12:30:29;;;;;;;;;;;;;;;1.97;78.46;99196.53;7394291;19;19936;-87
2023/01/22 12:32:57;;;;;;;;;;;;;;;1.97;78.42;99190.47;7385469;19;19925;-87
2023/01/22 12:35:25;;;;;;;;;;;;;;;1.93;78.63;99195.00;7391416;19;19925;-87
2023/01/22 12:38:02;;;;;;;;;;;;;;;2.04;78.37;99202.28;7386837;19;19926;-87
2023/01/22 12:40:38;;;;;;;;;;;;;;;1.87;78.87;99197.09;7392525;19;20275;-89
2023/01/22 12:43:05;;;;;;;;;;;;;;;1.89;78.93;99197.84;7384271;19;19914;-89
2023/01/22 12:45:48;;;;;;;;;;;;;;;2.03;78.63;99194.50;7387226;19;20753;-88
2023/01/22 12:48:24;;;;;;;;;;;;;;;1.94;78.63;99195.84;7386335;19;19925;-88
2023/01/22 12:50:51;;;;;;;;;;;;;;;1.93;78.67;99195.00;7386797;19;19914;-87
2023/01/22 12:53:26;;;;;;;;;;;;;;;2.11;78.46;99197.56;7391594;19;20373;-87
2023/01/22 12:56:02;;;;;;;;;;;;;;;1.87;78.70;99205.78;7392610;19;19945;-87
2023/01/22 12:58:30;;;;;;;;;;;;;;;1.85;78.94;99201.56;7392987;19;19930;-89
2023/01/22 13:01:02;;;;;;;;;;;;;;;1.81;78.90;99198.25;7381566;19;20305;-87
2023/01/22 13:03:29;;;;;;;;;;;;;;;1.72;79.32;99199.59;7389072;19;19974;-88
2023/01/22 13:05:58;;;;;;;;;;;;;;;1.90;79.04;99194.34;7381636;19;19942;-87
2023/01/22 13:08:34;;;;;;;;;;;;;;;2.09;78.86;99196.81;7385389;19;20257;-87
2023/01/22 13:11:03;;;;;;;;;;;;;;;2.25;78.52;99200.28;7381113;19;19930;-88
2023/01/22 13:13:38;;;;;;;;;;;;;;;2.18;78.24;99201.53;7385384;19;20812;-87
2023/01/22 13:16:06;;;;;;;;;;;;;;;2.01;78.39;99212.03;7401868;19;19927;-88
2023/01/22 13:18:37;;;;;;;;;;;;;;;2.05;78.50;99205.72;7394090;19;19910;-87